Flight Track Log - Related Links

Times and Time Zones

All times are in EDT time to prevent confusion due to time zone crossing. See the SWA756 flight status page for this flight to view local times or setup timezone preferences in your user account.

Time Position Orientation Groundspeed Altitude Reporting Facility
EDT Latitude Longitude Course Direction KTS MPH feet Rate Location/Type
Wed 02:35:40 PM 37.7372 -122.2672 286° West 170 196 2,300  Level Oakland Center
Wed 02:36:41 PM 37.7728 -122.3367 303° West 227 261 6,500 4,370 Climbing Oakland Center
Wed 02:37:12 PM 37.7667 -122.4000 263° West 295 339 9,000 4,154 Climbing Northern Cal TRACON
Wed 02:38:12 PM 37.7000 -122.4667 218° Southwest 320 368 12,800 3,686 Climbing Northern Cal TRACON
Wed 02:39:45 PM 37.5514 -122.5447 203° Southwest 376 433 18,400 3,445 Climbing Oakland Center
Wed 02:40:47 PM 37.4453 -122.5494 182° South 383 441 21,700 3,171 Climbing Oakland Center
Wed 02:41:48 PM 37.3319 -122.5542 182° South 406 467 24,900 2,878 Climbing Oakland Center
Wed 02:42:50 PM 37.2219 -122.5211 167° South 417 480 27,600 2,488 Climbing Oakland Center
Wed 02:43:51 PM 37.1219 -122.4342 145° Southeast 435 501 30,000 2,195 Climbing Oakland Center
Wed 02:44:53 PM 37.0178 -122.3497 147° Southeast 446 513 32,100 2,244 Climbing Oakland Center
Wed 02:45:54 PM 36.9142 -122.2619 146° Southeast 450 518 34,600 2,262 Climbing Oakland Center
Wed 02:46:55 PM 36.8117 -122.1753 146° Southeast 447 514 36,700 1,902 Climbing Oakland Center
Wed 02:47:57 PM 36.7103 -122.0922 147° Southeast 440 506 38,500 1,561 Climbing Oakland Center
Wed 02:48:58 PM 36.5881 -121.9906 146° Southeast 443 510 39,900 1,220 Climbing Oakland Center
Wed 02:50:00 PM 36.4850 -121.9047 146° Southeast 446 513 41,000 537 Climbing Oakland Center
Wed 02:51:01 PM 36.3839 -121.8189 146° Southeast 443 510 41,000  Level Oakland Center
Wed 02:52:03 PM 36.2739 -121.7289 147° Southeast 444 511 41,000  Level Oakland Center
Wed 02:53:04 PM 36.1722 -121.6458 147° Southeast 442 509 41,000  Level Oakland Center
Wed 02:54:05 PM 36.0683 -121.5628 147° Southeast 444 511 41,000  Level Oakland Center
Wed 02:55:07 PM 35.9653 -121.4767 146° Southeast 447 514 41,000  Level Oakland Center
Wed 02:56:08 PM 35.8619 -121.3947 147° Southeast 445 512 41,000  Level Oakland Center
Wed 02:57:10 PM 35.7594 -121.3108 146° Southeast 445 512 41,000  Level Oakland Center
Wed 02:58:11 PM 35.6575 -121.2289 147° Southeast 441 507 41,000  Level Oakland Center
Wed 02:59:13 PM 35.5364 -121.1311 147° Southeast 437 503 41,000  Level Oakland Center
Wed 03:00:14 PM 35.4522 -121.0267 135° Southeast 437 503 41,000  Level Oakland Center
Wed 03:01:15 PM 35.3828 -120.9017 124° Southeast 446 513 41,000  Level Oakland Center
Wed 03:02:17 PM 35.3119 -120.7806 126° Southeast 442 509 41,000  Level Oakland Center
Wed 03:03:18 PM 35.2431 -120.6578 124° Southeast 443 510 41,000  Level Oakland Center
Wed 03:04:20 PM 35.1739 -120.5364 125° Southeast 444 511 41,000  Level Oakland Center
Wed 03:05:28 PM 35.0936 -120.3967 125° Southeast 442 509 41,000  Level Los Angeles Center
Wed 03:06:30 PM 35.0231 -120.2733 125° Southeast 440 506 41,000  Level Los Angeles Center
Wed 03:07:32 PM 34.9528 -120.1503 125° Southeast 439 505 41,000  Level Los Angeles Center
Wed 03:08:34 PM 34.8681 -120.0044 125° Southeast 438 504 41,000  Level Los Angeles Center
Wed 03:09:36 PM 34.7972 -119.8839 126° Southeast 439 505 41,000  Level Los Angeles Center
Wed 03:10:38 PM 34.7281 -119.7617 125° Southeast 440 506 41,000  Level Los Angeles Center
Wed 03:11:40 PM 34.6569 -119.6417 126° Southeast 439 505 41,000  Level Los Angeles Center
Wed 03:12:42 PM 34.5781 -119.5097 126° Southeast 433 498 41,000  Level Los Angeles Center
Wed 03:13:44 PM 34.5067 -119.3897 126° Southeast 437 503 41,000  Level Los Angeles Center
Wed 03:14:46 PM 34.4356 -119.2703 126° Southeast 438 504 41,000  Level Los Angeles Center
Wed 03:15:48 PM 34.3658 -119.1506 125° Southeast 437 503 41,000  Level Los Angeles Center
Wed 03:16:50 PM 34.2950 -119.0333 126° Southeast 434 499 41,000  Level Los Angeles Center
Wed 03:17:52 PM 34.2094 -118.8922 126° Southeast 433 498 41,000 -484 Level Los Angeles Center
Wed 03:18:54 PM 34.1400 -118.7753 126° Southeast 430 495 40,000 -1,161 Descending Los Angeles Center
Wed 03:19:56 PM 34.0692 -118.6567 126° Southeast 434 499 38,600 -1,645 Descending Los Angeles Center
Wed 03:20:58 PM 33.9981 -118.5392 126° Southeast 433 498 36,600 -1,984 Descending Los Angeles Center
Wed 03:22:00 PM 33.9303 -118.4292 127° Southeast 415 478 34,500 -2,081 Descending Los Angeles Center
Wed 03:23:02 PM 33.8550 -118.3317 133° Southeast 395 455 32,300 -2,208 Descending Los Angeles Center
Wed 03:24:05 PM 33.7614 -118.2175 135° Southeast 405 466 29,900 -1,790 Descending Los Angeles Center
Wed 03:25:06 PM 33.7103 -118.1464 131° Southeast 413 475 28,600 -1,935 Descending Los Angeles Center
Wed 03:26:09 PM 33.5983 -118.0047 133° Southeast 417 480 25,900 -2,304 Descending Los Angeles Center
Wed 03:27:11 PM 33.5228 -117.9092 133° Southeast 397 457 23,800 -1,645 Descending Los Angeles Center
Wed 03:28:13 PM 33.4539 -117.8225 134° Southeast 365 420 22,500 -1,403 Descending Los Angeles Center
Wed 03:29:15 PM 33.3858 -117.7378 134° Southeast 354 407 20,900 -1,500 Descending Los Angeles Center
Wed 03:30:29 PM 33.3206 -117.6525 132° Southeast 350 403 19,100 -1,872 Descending Los Angeles Center
Wed 03:31:20 PM 33.2500 -117.5667 134° Southeast 331 381 17,000 -2,000 Descending Southern California TRACON
Wed 03:32:26 PM 33.1667 -117.5000 146° Southeast 320 368 15,200 -1,571 Descending Southern California TRACON
Wed 03:33:26 PM 33.1000 -117.4333 140° Southeast 304 350 13,700 -1,850 Descending Southern California TRACON
Wed 03:34:26 PM 33.0333 -117.3833 148° Southeast 303 349 11,500 -1,750 Descending Southern California TRACON
Wed 03:35:26 PM 32.9667 -117.3333 148° Southeast 284 327 10,200 -1,200 Descending Southern California TRACON
Wed 03:36:26 PM 32.9000 -117.2833 148° Southeast 250 288 9,100 -1,238 Descending Southern California TRACON
Wed 03:37:32 PM 32.8333 -117.2333 148° Southeast 245 282 7,600 -1,319 Descending Southern California TRACON
Wed 03:37:57 PM 32.8144 -117.2106 135° Southeast 244 281 7,100 -414 Descending Los Angeles Center
Wed 03:38:59 PM 32.7981 -117.1506 108° East 224 258 7,000 -135 Descending Los Angeles Center
Wed 03:39:26 PM 32.7833 -117.1167 117° Southeast 182 209 6,900  Descending Southern California TRACON
Wed 03:40:32 PM 32.7833 -117.0500 90° East 166 191 7,000 48 Climbing Southern California TRACON
Wed 03:41:32 PM 32.7667 -117.0000 112° Southeast 168 193 7,000  Level Southern California TRACON
Wed 03:42:38 PM 32.7500 -116.9500 112° Southeast 170 196 7,000  Level Southern California TRACON
Wed 03:43:38 PM 32.7500 -116.8833 90° East 173 199 7,000  Level Southern California TRACON
Wed 03:44:10 PM 32.7383 -116.8661 129° Southeast 169 194 7,000 -766 Level Los Angeles Center
Wed 03:45:12 PM 32.6956 -116.8628 176° South 188 216 5,800 -1,171 Descending Los Angeles Center
Wed 03:45:32 PM 32.6833 -116.8833 235° Southwest 204 235 5,400 -825 Descending Southern California TRACON
Wed 03:46:32 PM 32.6833 -116.9500 270° West 194 223 4,700 -857 Descending Southern California TRACON
Wed 03:47:38 PM 32.6833 -117.0000 270° West 161 185 3,600 -1,143 Descending Southern California TRACON
Wed 03:48:38 PM 32.7000 -117.0500 292° West 154 177 2,300 -1,150 Descending Southern California TRACON
Wed 03:49:38 PM 32.7167 -117.1000 292° West 126 145 1,300 -783 Descending Southern California TRACON
Wed 03:50:33 PM 32.7167 -117.1333 270° West 125 144 800 -505 Descending Southern California TRACON
Wed 03:51:25 PM 32.7272 -117.1625 293° West 128 147 400 -368 Descending Los Angeles Center
Wed 03:52:27 PM 32.7364 -117.1978 287° West 119 137 100 -290 Descending Los Angeles Center

Login

Don't have an account? Register now (free) for customized features, flight alerts, and more!